Time;durP1;ratioP1;P1;durP2;ratioP2;P2;SDS_P1;SDS_P2;PMS_P1;PMS_P2;Temp;Humidity;BMP_temperature;BMP_pressure;BME280_temperature;BME280_humidity;BME280_pressure;Samples;Min_cycle;Max_cycle;Signal;HPM_P1;HPM_P2
2023/08/13 00:02:20;;;;;;;6.10;1.60;;;;;;;23.44;55.48;101667.38;5006709;28;20091;-67
2023/08/13 00:04:46;;;;;;;6.07;2.00;;;;;;;23.45;55.31;101669.06;5006858;28;20034;-70
2023/08/13 00:07:11;;;;;;;5.60;1.52;;;;;;;23.45;55.08;101669.06;5006026;28;20035;-68
2023/08/13 00:09:37;;;;;;;4.93;1.52;;;;;;;23.44;55.13;101670.03;5006519;28;20065;-68
2023/08/13 00:12:02;;;;;;;4.22;1.70;;;;;;;23.43;55.31;101662.22;5006783;28;20119;-67
2023/08/13 00:14:28;;;;;;;3.45;1.48;;;;;;;23.43;55.51;101668.38;5006459;28;20034;-67
2023/08/13 00:16:54;;;;;;;5.68;1.70;;;;;;;23.42;55.35;101664.03;5006588;28;20462;-67
2023/08/13 00:19:19;;;;;;;5.32;1.63;;;;;;;23.42;54.95;101663.22;5006605;28;20033;-67
2023/08/13 00:21:45;;;;;;;4.70;1.77;;;;;;;23.41;55.10;101665.00;5006536;28;20470;-67
2023/08/13 00:24:10;;;;;;;4.45;1.60;;;;;;;23.40;54.88;101668.66;5006284;28;20030;-68
2023/08/13 00:26:38;;;;;;;4.95;1.70;;;;;;;23.41;54.96;101658.84;5006648;28;20382;-64
2023/08/13 00:29:05;;;;;;;4.53;1.83;;;;;;;23.41;55.12;101658.84;5006843;28;20049;-67
2023/08/13 00:31:32;;;;;;;4.53;1.65;;;;;;;23.39;55.00;101663.47;5006756;28;20116;-67
2023/08/13 00:33:57;;;;;;;4.43;1.40;;;;;;;23.39;54.81;101659.00;5006567;28;20044;-70
2023/08/13 00:36:22;;;;;;;5.22;1.65;;;;;;;23.39;54.84;101652.84;5006164;28;20390;-67
2023/08/13 00:38:47;;;;;;;3.88;1.70;;;;;;;23.40;55.00;101651.84;5005265;28;20411;-68
2023/08/13 00:41:13;;;;;;;4.40;1.60;;;;;;;23.38;54.66;101656.47;5006026;28;20034;-68
2023/08/13 00:43:39;;;;;;;5.15;1.70;;;;;;;23.38;54.73;101653.81;5006976;28;20602;-66
2023/08/13 00:46:05;;;;;;;5.63;1.92;;;;;;;23.36;54.88;101651.28;5010110;28;20065;-68
2023/08/13 00:48:31;;;;;;;5.53;1.65;;;;;;;23.37;54.95;101652.97;5009088;28;20038;-66
2023/08/13 00:50:57;;;;;;;4.78;1.63;;;;;;;23.36;54.98;101648.63;5010114;28;20038;-66
2023/08/13 00:53:23;;;;;;;4.35;1.48;;;;;;;23.34;54.56;101643.44;5009935;28;20087;-68
2023/08/13 00:55:49;;;;;;;4.22;1.50;;;;;;;23.34;55.20;101648.78;5010075;28;20550;-68
2023/08/13 00:58:15;;;;;;;5.95;1.88;;;;;;;23.35;54.57;101644.28;5010176;28;20030;-68
2023/08/13 01:00:41;;;;;;;4.03;1.33;;;;;;;23.36;54.62;101648.63;5010292;28;20037;-66
2023/08/13 01:03:07;;;;;;;4.28;1.58;;;;;;;23.33;55.01;101644.41;5009270;28;20469;-67
2023/08/13 01:05:44;;;;;;;4.22;1.88;;;;;;;23.31;54.53;101643.72;5009543;28;20034;-67
2023/08/13 01:08:30;;;;;;;5.40;1.55;;;;;;;23.32;54.82;101650.75;5009830;28;20390;-70
2023/08/13 01:11:13;;;;;;;4.75;1.77;;;;;;;23.32;54.94;101649.88;5009658;28;20038;-67
2023/08/13 01:13:47;;;;;;;4.28;1.58;;;;;;;23.32;54.71;101648.06;5008452;28;20581;-67
2023/08/13 01:16:15;;;;;;;5.65;1.55;;;;;;;23.32;54.69;101650.75;5009705;28;20390;-71
2023/08/13 01:18:42;;;;;;;5.38;1.75;;;;;;;23.31;54.60;101650.88;5009774;28;20042;-69
2023/08/13 01:21:07;;;;;;;6.88;1.70;;;;;;;23.31;54.36;101659.69;5009658;28;20116;-67
2023/08/13 01:23:32;;;;;;;3.78;1.50;;;;;;;23.31;54.82;101658.84;5009447;28;20492;-69
2023/08/13 01:26:07;;;;;;;4.97;1.45;;;;;;;23.29;54.97;101663.44;5009337;28;20038;-67
2023/08/13 01:28:46;;;;;;;4.05;1.45;;;;;;;23.31;54.40;101661.50;5009254;28;20038;-71
2023/08/13 01:31:16;;;;;;;6.10;1.98;;;;;;;23.28;54.73;101657.31;5009328;28;20038;-68
2023/08/13 01:33:45;;;;;;;6.00;1.85;;;;;;;23.28;54.72;101659.97;5009068;28;20033;-67
2023/08/13 01:36:16;;;;;;;3.92;1.52;;;;;;;23.28;54.77;101657.31;5009455;28;20030;-72
2023/08/13 01:38:42;;;;;;;5.45;1.58;;;;;;;23.28;54.53;101659.13;5009269;28;20034;-68
2023/08/13 01:41:07;;;;;;;5.35;1.50;;;;;;;23.28;54.26;101654.66;5009426;28;20036;-69
2023/08/13 01:43:32;;;;;;;5.03;1.88;;;;;;;23.27;54.46;101660.94;5009183;28;20029;-67
2023/08/13 01:46:00;;;;;;;4.72;1.55;;;;;;;23.28;54.73;101661.78;5009494;28;20041;-65
2023/08/13 01:48:25;;;;;;;4.13;1.40;;;;;;;23.28;54.69;101653.81;5008906;28;20060;-71
2023/08/13 01:50:50;;;;;;;4.72;1.52;;;;;;;23.27;54.42;101657.44;5009147;28;20470;-67
2023/08/13 01:53:16;;;;;;;5.28;1.65;;;;;;;23.27;54.75;101655.59;5007579;28;20030;-70
2023/08/13 01:55:41;;;;;;;4.97;1.58;;;;;;;23.25;54.41;101657.56;5008026;28;20026;-67
2023/08/13 01:58:07;;;;;;;4.63;1.73;;;;;;;23.25;54.66;101649.59;5009154;28;20136;-69
2023/08/13 02:00:33;;;;;;;6.07;1.70;;;;;;;23.24;54.61;101649.75;5007872;28;20042;-67
2023/08/13 02:02:58;;;;;;;4.55;1.50;;;;;;;23.24;54.21;101655.06;5008914;28;20494;-68
2023/08/13 02:05:23;;;;;;;4.35;1.60;;;;;;;23.25;54.82;101654.09;5007614;28;20057;-68
2023/08/13 02:07:49;;;;;;;4.65;1.60;;;;;;;23.25;54.69;101654.91;5008223;28;20065;-69
2023/08/13 02:10:14;;;;;;;3.88;1.48;;;;;;;23.24;54.04;101652.41;5008611;28;20123;-65
2023/08/13 02:12:39;;;;;;;4.65;1.92;;;;;;;23.23;54.22;101654.22;5008609;28;20397;-67
2023/08/13 02:15:06;;;;;;;3.75;1.35;;;;;;;23.23;54.25;101651.56;5009116;28;20121;-69
2023/08/13 02:17:31;;;;;;;5.85;1.80;;;;;;;23.23;54.52;101642.75;5008386;28;20104;-67
2023/08/13 02:19:56;;;;;;;3.70;1.25;;;;;;;23.22;54.52;101646.38;5008706;28;20037;-69
2023/08/13 02:22:22;;;;;;;3.95;1.40;;;;;;;23.24;54.40;101644.41;5008809;28;20044;-67
2023/08/13 02:24:47;;;;;;;6.03;1.70;;;;;;;23.21;54.12;101642.91;5008428;28;20034;-68
2023/08/13 02:27:12;;;;;;;5.55;1.50;;;;;;;23.22;54.55;101635.75;5008238;28;20034;-68
2023/08/13 02:29:38;;;;;;;5.55;1.42;;;;;;;23.21;54.13;101642.03;5008619;28;20069;-69
2023/08/13 02:32:03;;;;;;;4.47;1.50;;;;;;;23.21;54.27;101642.91;5008424;28;20076;-66
2023/08/13 02:34:33;;;;;;;5.20;1.70;;;;;;;23.21;54.31;101639.38;5008446;28;20034;-67
2023/08/13 02:36:59;;;;;;;3.85;1.33;;;;;;;23.22;54.20;101638.41;5008243;28;20064;-67
2023/08/13 02:39:24;;;;;;;4.13;1.50;;;;;;;23.20;54.54;101638.56;5007986;28;20090;-67
2023/08/13 02:41:49;;;;;;;4.22;1.48;;;;;;;23.20;54.40;101627.09;5008211;28;20057;-67
2023/08/13 02:44:15;;;;;;;5.20;1.50;;;;;;;23.20;53.86;101637.72;5008145;28;20099;-67
2023/08/13 02:46:40;;;;;;;3.67;1.20;;;;;;;23.19;54.31;101636.84;5008013;28;20038;-70
2023/08/13 02:49:05;;;;;;;4.28;1.30;;;;;;;23.19;53.88;101628.88;5007923;28;20030;-66
2023/08/13 02:51:31;;;;;;;5.18;1.42;;;;;;;23.19;54.29;101628.88;5007999;28;20029;-69
2023/08/13 02:53:56;;;;;;;4.38;1.50;;;;;;;23.18;54.01;101624.56;5007982;28;20509;-67
2023/08/13 02:56:21;;;;;;;4.50;1.27;;;;;;;23.19;54.06;101628.88;5008065;28;20029;-68
2023/08/13 02:58:46;;;;;;;4.32;1.50;;;;;;;23.19;54.19;101631.53;5007916;28;20098;-67
2023/08/13 03:01:12;;;;;;;4.82;1.40;;;;;;;23.17;54.12;101633.50;5007626;28;20500;-68
2023/08/13 03:03:38;;;;;;;5.45;1.40;;;;;;;23.17;53.71;101629.03;5007130;28;20124;-70
2023/08/13 03:06:03;;;;;;;5.07;1.38;;;;;;;23.17;54.13;101628.19;5007824;28;20489;-67
2023/08/13 03:08:28;;;;;;;5.95;1.55;;;;;;;23.16;53.71;101627.38;5006924;28;20458;-68
2023/08/13 03:10:54;;;;;;;4.88;1.38;;;;;;;23.16;54.07;101632.69;5006998;28;20076;-69
2023/08/13 03:13:19;;;;;;;5.38;1.70;;;;;;;23.15;53.74;101627.50;5007060;28;20117;-67
2023/08/13 03:15:44;;;;;;;4.18;1.40;;;;;;;23.17;53.89;101628.19;5007306;28;20037;-68
2023/08/13 03:18:10;;;;;;;3.70;1.33;;;;;;;23.16;53.80;101629.16;5007223;28;20458;-67
2023/08/13 03:20:36;;;;;;;5.03;1.40;;;;;;;23.15;53.71;101622.19;5007828;28;20370;-68
2023/08/13 03:23:02;;;;;;;4.47;1.30;;;;;;;23.14;53.69;101625.81;5007234;28;20042;-69
2023/08/13 03:25:27;;;;;;;5.25;1.67;;;;;;;23.13;53.58;101624.97;5006413;28;21435;-68
2023/08/13 03:27:53;;;;;;;4.80;1.38;;;;;;;23.13;53.71;101627.63;5006962;28;20028;-70
2023/08/13 03:30:18;;;;;;;4.68;1.70;;;;;;;23.13;54.03;101624.97;5006504;28;20041;-67
2023/08/13 03:32:43;;;;;;;4.07;1.45;;;;;;;23.13;53.92;101622.31;5006763;28;20025;-69
2023/08/13 03:35:09;;;;;;;3.85;1.10;;;;;;;23.13;53.72;101632.94;5006745;28;20030;-67
2023/08/13 03:37:34;;;;;;;3.85;1.30;;;;;;;23.13;53.75;101627.63;5005104;28;20049;-67
2023/08/13 03:39:59;;;;;;;5.07;1.27;;;;;;;23.12;53.62;101625.13;5006744;28;20034;-68
2023/08/13 03:42:25;;;;;;;5.03;1.20;;;;;;;23.12;53.50;101628.59;5006424;28;20056;-67
2023/08/13 03:44:50;;;;;;;4.20;1.30;;;;;;;23.11;53.93;101628.75;5006687;28;20414;-68
2023/08/13 03:47:16;;;;;;;3.70;1.27;;;;;;;23.12;54.16;101630.44;5007056;28;20033;-69
2023/08/13 03:49:41;;;;;;;4.50;1.45;;;;;;;23.12;53.49;101620.63;5006255;28;20081;-66
2023/08/13 03:52:06;;;;;;;5.88;1.38;;;;;;;23.11;53.48;101626.91;5006071;28;20033;-71
2023/08/13 03:54:32;;;;;;;4.22;1.27;;;;;;;23.10;53.87;101627.91;5006655;28;20030;-67
2023/08/13 03:56:57;;;;;;;4.15;1.42;;;;;;;23.11;53.50;101628.75;5004742;28;20042;-67
2023/08/13 03:59:23;;;;;;;4.00;1.25;;;;;;;23.11;53.65;101634.06;5006167;28;20034;-66
2023/08/13 04:01:48;;;;;;;5.22;1.58;;;;;;;23.10;53.61;101630.56;5006227;28;20118;-66
2023/08/13 04:04:13;;;;;;;5.25;1.45;;;;;;;23.10;53.52;101633.22;5006435;28;20087;-66
2023/08/13 04:06:38;;;;;;;5.00;1.50;;;;;;;23.09;53.96;101631.53;5006448;28;20116;-66
2023/08/13 04:09:05;;;;;;;4.80;1.38;;;;;;;23.10;53.50;101646.53;5006195;28;20302;-66
2023/08/13 04:11:30;;;;;;;5.43;1.27;;;;;;;23.08;53.33;101644.97;5005633;28;20100;-67
2023/08/13 04:13:55;;;;;;;4.45;1.63;;;;;;;23.09;53.74;101644.00;5006589;28;20109;-70
2023/08/13 04:16:20;;;;;;;5.03;1.30;;;;;;;23.08;53.43;101639.66;5006119;28;20034;-67
2023/08/13 04:18:46;;;;;;;4.13;1.73;;;;;;;23.08;53.87;101635.19;5005590;28;20136;-67
2023/08/13 04:21:11;;;;;;;3.83;1.23;;;;;;;23.09;53.82;101642.16;5006296;28;20045;-69
2023/08/13 04:23:36;;;;;;;3.97;1.27;;;;;;;23.09;53.39;101644.84;5005350;28;20132;-66
2023/08/13 04:26:02;;;;;;;5.65;1.77;;;;;;;23.07;53.68;101646.75;5007330;28;20057;-68
2023/08/13 04:28:28;;;;;;;4.25;1.42;;;;;;;23.08;53.58;101642.31;5007750;28;20041;-68
2023/08/13 04:30:53;;;;;;;4.40;1.40;;;;;;;23.08;53.88;101645.81;5008041;28;20037;-67
2023/08/13 04:33:18;;;;;;;3.72;1.20;;;;;;;23.08;53.72;101644.97;5007469;28;20044;-68
2023/08/13 04:35:44;;;;;;;5.28;1.73;;;;;;;23.08;53.74;101643.16;5006482;28;20029;-66
2023/08/13 04:38:10;;;;;;;2.67;1.17;;;;;;;23.08;53.41;101637.84;5007040;28;20025;-66
2023/08/13 04:40:36;;;;;;;4.75;1.88;;;;;;;23.05;53.88;101635.44;5006597;28;20042;-65
2023/08/13 04:43:01;;;;;;;3.97;1.30;;;;;;;23.05;53.43;101638.09;5022428;28;20084;-66
2023/08/13 04:45:26;;;;;;;4.95;1.33;;;;;;;23.05;53.27;101643.41;5007168;28;20046;-68
2023/08/13 04:47:52;;;;;;;4.47;1.50;;;;;;;23.05;53.27;101640.75;5005182;28;20030;-66
2023/08/13 04:50:17;;;;;;;4.38;1.60;;;;;;;23.05;53.90;101651.38;5004849;28;20041;-66
2023/08/13 04:52:43;;;;;;;3.88;1.25;;;;;;;23.06;53.61;101658.38;5005248;28;20497;-66
2023/08/13 04:55:09;;;;;;;4.32;1.58;;;;;;;23.05;53.76;101642.56;5005031;28;20030;-66
2023/08/13 04:57:34;;;;;;;3.72;1.35;;;;;;;23.04;53.71;101647.03;5004911;28;20076;-66
2023/08/13 05:00:00;;;;;;;3.90;1.30;;;;;;;23.04;53.36;101648.88;5005273;28;20442;-68
2023/08/13 05:02:25;;;;;;;5.72;1.58;;;;;;;23.04;53.37;101646.22;5004983;28;20034;-66
2023/08/13 05:04:50;;;;;;;4.50;1.30;;;;;;;23.04;53.59;101652.34;5005820;28;20034;-68
2023/08/13 05:07:16;;;;;;;3.47;1.42;;;;;;;23.04;53.81;101647.03;5004857;28;20117;-67
2023/08/13 05:09:41;;;;;;;3.65;1.30;;;;;;;23.03;53.97;101639.19;5004700;28;20037;-67
2023/08/13 05:12:07;;;;;;;2.90;1.30;;;;;;;23.03;53.43;101634.72;5004979;28;20092;-67
2023/08/13 05:14:32;;;;;;;4.15;1.40;;;;;;;23.03;53.78;101632.06;5005248;28;20977;-68
2023/08/13 05:16:58;;;;;;;4.47;1.20;;;;;;;23.04;53.82;101636.41;5004189;28;20026;-68
2023/08/13 05:19:23;;;;;;;6.90;1.73;;;;;;;23.01;53.80;101631.38;5004211;28;20064;-65
2023/08/13 05:21:49;;;;;;;4.82;1.52;;;;;;;23.02;53.39;101638.38;5004980;28;20034;-68
2023/08/13 05:24:15;;;;;;;4.20;1.40;;;;;;;23.04;53.78;101640.91;5004637;28;20105;-67
2023/08/13 05:26:40;;;;;;;4.07;1.40;;;;;;;23.03;53.27;101655.97;5004983;28;20129;-68
2023/08/13 05:29:05;;;;;;;4.57;1.48;;;;;;;23.03;53.38;101650.66;5004744;28;20040;-66
2023/08/13 05:31:31;;;;;;;4.40;1.45;;;;;;;23.03;53.37;101650.66;5007986;28;20038;-66
2023/08/13 05:34:00;;;;;;;4.13;1.40;;;;;;;23.03;53.33;101649.84;5008284;28;20041;-68
2023/08/13 05:36:25;;;;;;;3.90;1.38;;;;;;;23.03;53.70;101645.34;5008533;28;20069;-68
2023/08/13 05:38:51;;;;;;;4.18;1.50;;;;;;;23.03;53.53;101650.66;5008169;28;20069;-67
2023/08/13 05:41:16;;;;;;;4.15;1.20;;;;;;;23.01;53.90;101650.81;5008363;28;20498;-67
2023/08/13 05:43:41;;;;;;;5.38;1.90;;;;;;;23.02;53.78;101654.31;5008109;28;20046;-66
2023/08/13 05:46:07;;;;;;;6.10;1.63;;;;;;;23.02;53.51;101654.31;5008261;28;20103;-71
2023/08/13 05:48:33;;;;;;;7.45;1.70;;;;;;;23.03;53.80;101650.66;5007765;28;20022;-72
2023/08/13 05:50:58;;;;;;;6.55;1.85;;;;;;;23.02;53.84;101662.28;5007919;28;20038;-66
2023/08/13 05:53:23;;;;;;;4.07;1.27;;;;;;;23.03;53.79;101660.47;5007479;28;20026;-66
2023/08/13 05:55:50;;;;;;;5.93;1.50;;;;;;;23.00;53.91;101658.91;5007345;28;20030;-66
2023/08/13 05:58:15;;;;;;;5.50;1.55;;;;;;;23.01;53.41;101655.28;5007845;28;20108;-67
2023/08/13 06:00:41;;;;;;;3.88;1.70;;;;;;;23.02;53.92;101659.63;5008113;28;20113;-67
2023/08/13 06:03:06;;;;;;;6.00;1.60;;;;;;;23.01;54.02;101658.78;5007738;28;20110;-67
2023/08/13 06:05:31;;;;;;;5.47;1.80;;;;;;;23.02;53.95;101667.63;5006432;28;20076;-67
2023/08/13 06:07:57;;;;;;;3.85;1.50;;;;;;;23.03;53.69;101663.13;5007723;28;20044;-69
2023/08/13 06:10:22;;;;;;;4.40;1.50;;;;;;;23.03;53.84;101671.94;5007632;28;20040;-69
2023/08/13 06:12:48;;;;;;;3.83;1.50;;;;;;;23.04;54.01;101664.81;5007176;28;20116;-67
2023/08/13 06:15:13;;;;;;;5.05;1.52;;;;;;;23.06;53.61;101663.69;5007380;28;20849;-68
2023/08/13 06:17:38;;;;;;;4.68;1.90;;;;;;;23.06;54.13;101663.69;5007255;28;20042;-67
2023/08/13 06:20:04;;;;;;;6.20;1.58;;;;;;;23.07;54.12;101667.19;5007491;28;20532;-67
2023/08/13 06:22:29;;;;;;;6.43;1.73;;;;;;;23.06;54.58;101662.84;5007563;28;20403;-69
2023/08/13 06:24:55;;;;;;;5.57;1.80;;;;;;;23.04;54.79;101664.81;5006818;28;20371;-68
2023/08/13 06:27:22;;;;;;;7.03;1.80;;;;;;;23.04;54.83;101656.84;5007440;28;20041;-69
2023/08/13 06:29:47;;;;;;;4.85;1.55;;;;;;;23.03;54.52;101658.63;5007607;28;20034;-66
2023/08/13 06:32:12;;;;;;;6.15;1.83;;;;;;;23.05;55.03;101659.38;5003236;28;20048;-66
2023/08/13 06:34:38;;;;;;;6.22;1.60;;;;;;;23.07;54.67;101662.72;5005908;28;20478;-66
2023/08/13 06:37:03;;;;;;;5.90;1.88;;;;;;;23.10;55.00;101666.97;5005790;28;20478;-66
2023/08/13 06:39:29;;;;;;;4.63;1.90;;;;;;;23.10;55.23;101662.47;5006932;28;20058;-68
2023/08/13 06:41:54;;;;;;;5.72;1.70;;;;;;;23.09;55.30;101670.59;5006910;28;20041;-67
2023/08/13 06:44:20;;;;;;;5.40;1.65;;;;;;;23.09;55.46;101670.59;5007595;28;20042;-69
2023/08/13 06:46:46;;;;;;;5.45;1.63;;;;;;;23.10;55.09;101667.78;5008027;28;20037;-66
2023/08/13 06:49:12;;;;;;;4.70;1.38;;;;;;;23.10;55.05;101673.09;5007848;28;20511;-69
2023/08/13 06:51:38;;;;;;;7.53;1.85;;;;;;;23.11;55.53;101668.63;5004490;28;20120;-68
2023/08/13 06:54:03;;;;;;;11.68;2.05;;;;;;;23.14;55.41;101663.03;5007636;28;20037;-70
2023/08/13 06:56:30;;;;;;;5.25;1.58;;;;;;;23.15;55.58;101662.91;5006860;28;20378;-66
2023/08/13 06:58:57;;;;;;;7.30;1.90;;;;;;;23.16;55.73;101663.72;5008056;28;20038;-69
2023/08/13 07:01:27;;;;;;;10.15;3.28;;;;;;;23.18;57.07;101662.63;5007835;28;20038;-68
2023/08/13 07:03:53;;;;;;;7.43;2.95;;;;;;;23.21;57.24;101653.53;5008486;28;20041;-72
2023/08/13 07:06:19;;;;;;;7.85;2.70;;;;;;;23.24;57.54;101655.06;5008376;28;20026;-69
2023/08/13 07:08:45;;;;;;;7.00;2.72;;;;;;;23.25;57.94;101654.91;5008034;28;20033;-73
2023/08/13 07:11:12;;;;;;;6.70;2.22;;;;;;;23.25;57.54;101657.56;5008271;28;20140;-72
2023/08/13 07:13:41;;;;;;;9.65;2.60;;;;;;;23.23;58.02;101656.06;5008434;28;20513;-68
2023/08/13 07:16:10;;;;;;;13.07;2.40;;;;;;;23.24;57.94;101658.56;5006003;28;20555;-68
2023/08/13 07:18:36;;;;;;;8.00;2.50;;;;;;;23.23;57.96;101654.22;5007621;28;20045;-67
2023/08/13 07:21:04;;;;;;;11.07;2.67;;;;;;;23.25;58.43;101654.09;5008402;28;20018;-65
2023/08/13 07:23:30;;;;;;;6.68;2.38;;;;;;;23.23;58.06;101659.53;5006877;28;20037;-70
2023/08/13 07:25:56;;;;;;;9.52;2.70;;;;;;;23.24;58.26;101649.75;5007268;28;20057;-67
2023/08/13 07:28:22;;;;;;;8.13;2.20;;;;;;;23.27;57.86;101655.59;5007867;28;20030;-67
2023/08/13 07:30:50;;;;;;;6.80;2.20;;;;;;;23.28;58.08;101651.97;5007658;28;20029;-66
2023/08/13 07:33:20;;;;;;;5.32;2.10;;;;;;;23.30;58.19;101657.16;5007797;28;20034;-68
2023/08/13 07:35:46;;;;;;;6.90;2.10;;;;;;;23.32;58.36;101652.53;5007554;28;20720;-69
2023/08/13 07:38:20;;;;;;;6.70;2.45;;;;;;;23.32;58.19;101652.53;5007575;28;20116;-73
2023/08/13 07:40:50;;;;;;;8.50;2.22;;;;;;;23.35;58.06;101649.59;5006784;28;20490;-68
2023/08/13 07:43:17;;;;;;;9.60;2.67;;;;;;;23.36;58.20;101648.63;5007007;28;20033;-69
2023/08/13 07:45:46;;;;;;;13.07;2.60;;;;;;;23.36;58.19;101653.94;5006193;28;20068;-70
2023/08/13 07:48:16;;;;;;;8.27;2.45;;;;;;;23.35;58.25;101653.13;5006259;28;20068;-67
2023/08/13 07:50:50;;;;;;;7.82;2.30;;;;;;;23.38;57.98;101648.50;5007223;28;20049;-67
2023/08/13 07:53:16;;;;;;;6.80;2.10;;;;;;;23.40;57.82;101646.53;5006431;28;20038;-67
2023/08/13 07:55:43;;;;;;;6.95;1.83;;;;;;;23.40;57.91;101652.69;5006560;28;20030;-65
2023/08/13 07:58:09;;;;;;;7.63;2.22;;;;;;;23.42;57.59;101637.44;5005008;28;20038;-67
2023/08/13 08:00:36;;;;;;;12.30;2.38;;;;;;;23.41;57.55;101641.06;5006592;28;20872;-67
2023/08/13 08:03:03;;;;;;;8.85;2.22;;;;;;;23.40;57.58;101635.88;5007419;28;20499;-69
2023/08/13 08:05:29;;;;;;;7.80;2.05;;;;;;;23.41;57.63;101646.38;5006715;28;20037;-68
2023/08/13 08:07:55;;;;;;;5.43;2.00;;;;;;;23.42;57.59;101648.06;5007074;28;20062;-70
2023/08/13 08:10:24;;;;;;;6.63;1.98;;;;;;;23.41;57.75;101650.88;5007094;28;20046;-67
2023/08/13 08:12:50;;;;;;;6.93;2.38;;;;;;;23.40;57.70;101647.38;5006344;28;20117;-71
2023/08/13 08:15:15;;;;;;;6.90;1.90;;;;;;;23.39;58.00;101643.03;5005920;28;20050;-68
2023/08/13 08:17:40;;;;;;;4.30;1.75;;;;;;;23.39;58.01;101650.19;5006135;28;20337;-68
2023/08/13 08:20:07;;;;;;;5.70;2.05;;;;;;;23.39;57.56;101645.69;5006562;28;20501;-69
2023/08/13 08:22:32;;;;;;;7.53;1.80;;;;;;;23.42;57.72;101648.06;5006280;28;20501;-67
2023/08/13 08:24:57;;;;;;;7.30;2.25;;;;;;;23.40;57.69;101650.03;5006680;28;20030;-67
2023/08/13 08:27:23;;;;;;;10.55;2.47;;;;;;;23.40;57.57;101644.72;5005518;28;20088;-69
2023/08/13 08:29:48;;;;;;;6.78;2.20;;;;;;;23.41;57.41;101649.03;5004181;28;20418;-68
2023/08/13 08:32:13;;;;;;;8.15;2.20;;;;;;;23.40;57.68;101644.72;5005322;28;20026;-69
2023/08/13 08:34:39;;;;;;;6.90;2.28;;;;;;;23.42;57.49;101644.59;5005203;28;20121;-69
2023/08/13 08:37:05;;;;;;;6.75;2.13;;;;;;;23.41;57.84;101643.72;5005543;28;20108;-68
2023/08/13 08:39:31;;;;;;;7.15;2.38;;;;;;;23.46;57.70;101641.47;5004603;28;20026;-70
2023/08/13 08:41:57;;;;;;;7.10;2.00;;;;;;;23.48;57.18;101638.69;5006090;28;20387;-69
2023/08/13 08:44:29;;;;;;;6.30;1.73;;;;;;;23.50;57.42;101637.56;5005869;28;20050;-72
2023/08/13 08:46:57;;;;;;;5.90;1.80;;;;;;;23.50;57.27;101634.06;5006072;28;20426;-69
2023/08/13 08:49:25;;;;;;;7.78;1.98;;;;;;;23.50;57.58;101642.06;5006062;28;20030;-66
2023/08/13 08:51:51;;;;;;;4.53;1.52;;;;;;;23.49;57.38;101630.56;5005992;28;20046;-68
2023/08/13 08:54:22;;;;;;;6.25;1.90;;;;;;;23.52;57.16;101637.44;5006209;28;20037;-67
2023/08/13 08:56:50;;;;;;;5.68;1.60;;;;;;;23.53;57.04;101639.13;5005696;28;20378;-71
2023/08/13 08:59:17;;;;;;;5.82;1.90;;;;;;;23.54;57.08;101630.13;5004124;28;20033;-69
2023/08/13 09:01:43;;;;;;;5.78;1.90;;;;;;;23.56;57.12;101620.22;5006538;28;20030;-70
2023/08/13 09:04:09;;;;;;;6.18;1.90;;;;;;;23.58;57.22;101625.38;5006384;28;21224;-73
2023/08/13 09:06:57;;;;;;;8.90;1.95;;;;;;;23.58;57.02;101623.56;5009270;28;20045;-68
2023/08/13 09:09:25;;;;;;;6.55;1.70;;;;;;;23.58;57.24;101623.56;5007913;28;21152;-70
2023/08/13 09:11:52;;;;;;;6.43;2.15;;;;;;;23.59;57.36;101619.94;5009357;28;20030;-69
2023/08/13 09:14:18;;;;;;;8.30;2.20;;;;;;;23.63;56.88;101613.31;5009462;28;20125;-69
2023/08/13 09:16:49;;;;;;;4.75;1.85;;;;;;;23.62;57.21;101606.31;5010629;28;20041;-70
2023/08/13 09:19:16;;;;;;;6.57;1.73;;;;;;;23.59;57.27;101613.75;5010370;28;20037;-66
2023/08/13 09:21:53;;;;;;;4.78;1.42;;;;;;;23.59;56.90;101613.75;5010330;28;20120;-70
2023/08/13 09:24:38;;;;;;;6.78;2.08;;;;;;;23.62;56.99;101608.97;5010351;28;20029;-69
2023/08/13 09:27:06;;;;;;;7.85;2.65;;;;;;;23.64;57.06;101600.84;5010774;28;20480;-69
2023/08/13 09:29:33;;;;;;;5.82;1.77;;;;;;;23.64;57.16;101600.84;5009618;28;20065;-66
2023/08/13 09:32:00;;;;;;;7.28;1.95;;;;;;;23.63;56.94;101602.69;5009850;28;20389;-67
2023/08/13 09:34:27;;;;;;;6.78;1.80;;;;;;;23.62;56.80;101598.34;5008895;28;20048;-68
2023/08/13 09:36:54;;;;;;;5.60;1.80;;;;;;;23.65;56.76;101591.91;5010292;28;20089;-68
2023/08/13 09:39:24;;;;;;;7.20;1.70;;;;;;;23.64;57.23;101588.41;5009960;28;20048;-68
2023/08/13 09:41:51;;;;;;;5.70;1.48;;;;;;;23.66;56.85;101597.06;5009839;28;20126;-70
2023/08/13 09:44:21;;;;;;;8.50;1.55;;;;;;;23.65;57.03;101583.91;5008848;28;20050;-67
2023/08/13 09:46:51;;;;;;;8.95;1.92;;;;;;;23.65;57.13;101579.41;5009806;28;20034;-65
2023/08/13 09:49:18;;;;;;;7.07;1.63;;;;;;;23.67;56.44;101573.97;5009750;28;20479;-69
2023/08/13 09:51:46;;;;;;;9.60;2.17;;;;;;;23.65;56.48;101579.41;5009561;28;20034;-65
2023/08/13 09:54:22;;;;;;;12.93;2.28;;;;;;;23.64;56.73;101582.22;5009198;28;20426;-70
2023/08/13 09:56:59;;;;;;;5.20;1.38;;;;;;;23.63;56.44;101575.25;5009913;28;20052;-73
2023/08/13 09:59:26;;;;;;;6.63;1.70;;;;;;;23.63;56.57;101580.56;5009284;28;20030;-71
2023/08/13 10:01:52;;;;;;;6.32;1.70;;;;;;;23.61;56.86;101571.91;5008525;28;20049;-64
2023/08/13 10:04:20;;;;;;;10.23;1.95;;;;;;;23.59;56.97;101564.06;5005501;28;20038;-71
2023/08/13 10:06:51;;;;;;;6.28;1.63;;;;;;;23.57;57.05;101573.97;5008608;28;20065;-67
2023/08/13 10:09:32;;;;;;;7.93;1.77;;;;;;;23.58;56.70;101573.00;5006170;28;20069;-69
2023/08/13 10:12:18;;;;;;;5.72;1.40;;;;;;;23.57;56.86;101573.16;5007776;28;20088;-67
2023/08/13 10:14:44;;;;;;;4.75;1.50;;;;;;;23.58;56.77;101562.38;5006592;28;20064;-72
2023/08/13 10:17:17;;;;;;;6.25;1.88;;;;;;;23.53;56.81;101561.97;5006722;28;20038;-68
2023/08/13 10:19:59;;;;;;;4.32;1.80;;;;;;;23.55;56.90;101567.97;5008328;28;20061;-67
2023/08/13 10:22:35;;;;;;;6.03;1.60;;;;;;;23.56;56.58;101569.66;5007017;28;20599;-69
2023/08/13 10:25:02;;;;;;;5.93;1.70;;;;;;;23.54;56.63;101567.16;5008158;28;20040;-69
2023/08/13 10:27:29;;;;;;;5.88;1.50;;;;;;;23.54;56.65;101569.81;5008177;28;20034;-69
2023/08/13 10:30:13;;;;;;;12.38;2.10;;;;;;;23.53;56.56;101561.97;5008225;28;20486;-69
2023/08/13 10:32:54;;;;;;;8.43;1.75;;;;;;;23.53;56.94;101562.78;5006850;28;20482;-65
2023/08/13 10:35:39;;;;;;;7.30;2.28;;;;;;;23.63;56.58;101562.78;5007860;28;20030;-67
2023/08/13 10:38:07;;;;;;;5.70;1.50;;;;;;;23.68;56.48;101557.03;5007281;28;20030;-67
2023/08/13 10:40:33;;;;;;;7.43;1.83;;;;;;;23.70;56.06;101557.69;5007173;28;20046;-67
2023/08/13 10:43:02;;;;;;;6.35;1.60;;;;;;;23.75;56.38;101557.28;5007162;28;20030;-66
2023/08/13 10:45:34;;;;;;;5.95;1.58;;;;;;;23.73;56.40;101552.97;5006681;28;20054;-68
2023/08/13 10:48:03;;;;;;;4.85;1.50;;;;;;;23.76;56.04;101548.31;5007735;28;20034;-68
2023/08/13 10:50:35;;;;;;;12.38;2.42;;;;;;;23.73;56.50;101554.75;5007100;28;20038;-70
2023/08/13 10:53:22;;;;;;;7.72;1.98;;;;;;;23.76;56.65;101545.66;5007003;28;20022;-70
2023/08/13 10:55:53;;;;;;;13.43;2.58;;;;;;;23.85;56.25;101544.81;5005243;28;20029;-65
2023/08/13 10:58:41;;;;;;;11.98;2.80;;;;;;;23.85;56.39;101548.31;5005630;28;20461;-70
2023/08/13 11:01:13;;;;;;;8.73;2.25;;;;;;;23.90;56.37;101547.88;5007249;28;20085;-67
2023/08/13 11:03:56;;;;;;;7.90;2.00;;;;;;;23.88;55.72;101545.34;5005476;28;20037;-68
2023/08/13 11:06:24;;;;;;;11.15;1.92;;;;;;;23.85;55.71;101542.16;5006102;28;20033;-70
2023/08/13 11:08:50;;;;;;;9.05;2.20;;;;;;;23.83;55.86;101547.63;5004397;28;20391;-67
2023/08/13 11:11:19;;;;;;;7.32;2.13;;;;;;;23.82;56.13;101551.22;5005873;28;20276;-64
2023/08/13 11:13:45;;;;;;;6.93;2.10;;;;;;;23.83;56.19;101539.66;5005874;28;20045;-64
2023/08/13 11:16:11;;;;;;;7.10;2.08;;;;;;;23.83;56.38;101536.09;5005731;28;20387;-63
2023/08/13 11:18:37;;;;;;;9.43;2.30;;;;;;;23.78;56.30;101525.88;5005443;28;20057;-65
2023/08/13 11:21:02;;;;;;;6.63;2.10;;;;;;;23.81;56.20;101536.22;5005006;28;20026;-63
2023/08/13 11:23:27;;;;;;;6.35;2.20;;;;;;;23.81;56.17;101530.91;5007068;28;20034;-62
2023/08/13 11:25:53;;;;;;;9.15;2.10;;;;;;;23.81;56.39;101533.56;5007204;28;20061;-64